sensor_id;sensor_type;location;lat;lon;timestamp;P1;durP1;ratioP1;P2;durP2;ratioP2
1949;SDS011;975;48.760;9.152;2023-07-31T00:01:10;2.35;;;1.42;;
1949;SDS011;975;48.760;9.152;2023-07-31T00:03:58;3.80;;;1.30;;
1949;SDS011;975;48.760;9.152;2023-07-31T00:06:46;8.05;;;1.30;;
1949;SDS011;975;48.760;9.152;2023-07-31T00:09:34;5.28;;;1.50;;
1949;SDS011;975;48.760;9.152;2023-07-31T00:12:21;3.20;;;1.02;;
1949;SDS011;975;48.760;9.152;2023-07-31T00:15:10;1.60;;;1.00;;
1949;SDS011;975;48.760;9.152;2023-07-31T00:17:58;2.60;;;1.17;;
1949;SDS011;975;48.760;9.152;2023-07-31T00:20:47;2.80;;;0.90;;
1949;SDS011;975;48.760;9.152;2023-07-31T00:23:34;3.25;;;1.00;;
1949;SDS011;975;48.760;9.152;2023-07-31T00:26:22;4.82;;;1.35;;
1949;SDS011;975;48.760;9.152;2023-07-31T00:29:10;2.90;;;1.35;;
1949;SDS011;975;48.760;9.152;2023-07-31T00:31:59;2.40;;;1.35;;
1949;SDS011;975;48.760;9.152;2023-07-31T00:34:46;4.85;;;1.48;;
1949;SDS011;975;48.760;9.152;2023-07-31T00:37:34;1.35;;;1.20;;
1949;SDS011;975;48.760;9.152;2023-07-31T00:40:22;3.83;;;1.35;;
1949;SDS011;975;48.760;9.152;2023-07-31T00:43:09;3.30;;;1.35;;
1949;SDS011;975;48.760;9.152;2023-07-31T00:45:57;2.50;;;1.15;;
1949;SDS011;975;48.760;9.152;2023-07-31T00:48:46;4.10;;;1.30;;
1949;SDS011;975;48.760;9.152;2023-07-31T00:51:34;3.85;;;1.20;;
1949;SDS011;975;48.760;9.152;2023-07-31T00:54:22;4.93;;;1.58;;
1949;SDS011;975;48.760;9.152;2023-07-31T00:57:09;2.80;;;1.42;;
1949;SDS011;975;48.760;9.152;2023-07-31T00:59:57;5.00;;;1.25;;
1949;SDS011;975;48.760;9.152;2023-07-31T01:02:45;2.78;;;1.38;;
1949;SDS011;975;48.760;9.152;2023-07-31T01:05:36;4.43;;;1.38;;
1949;SDS011;975;48.760;9.152;2023-07-31T01:08:28;3.63;;;1.42;;
1949;SDS011;975;48.760;9.152;2023-07-31T01:11:19;2.55;;;1.00;;
1949;SDS011;975;48.760;9.152;2023-07-31T01:14:09;3.45;;;1.17;;
1949;SDS011;975;48.760;9.152;2023-07-31T01:16:57;1.13;;;1.00;;
1949;SDS011;975;48.760;9.152;2023-07-31T01:19:44;2.30;;;1.63;;
1949;SDS011;975;48.760;9.152;2023-07-31T01:22:39;3.42;;;1.60;;
1949;SDS011;975;48.760;9.152;2023-07-31T01:28:29;4.22;;;1.10;;
1949;SDS011;975;48.760;9.152;2023-07-31T01:31:21;4.78;;;1.10;;
1949;SDS011;975;48.760;9.152;2023-07-31T01:34:10;3.22;;;1.10;;
1949;SDS011;975;48.760;9.152;2023-07-31T01:36:58;6.97;;;1.30;;
1949;SDS011;975;48.760;9.152;2023-07-31T01:39:46;2.35;;;1.30;;
1949;SDS011;975;48.760;9.152;2023-07-31T01:42:34;7.00;;;1.60;;
1949;SDS011;975;48.760;9.152;2023-07-31T01:45:23;7.63;;;1.48;;
1949;SDS011;975;48.760;9.152;2023-07-31T01:48:11;3.05;;;1.30;;
1949;SDS011;975;48.760;9.152;2023-07-31T01:51:00;3.13;;;1.20;;
1949;SDS011;975;48.760;9.152;2023-07-31T01:53:47;2.15;;;0.98;;
1949;SDS011;975;48.760;9.152;2023-07-31T01:56:35;4.10;;;1.10;;
1949;SDS011;975;48.760;9.152;2023-07-31T01:59:23;1.42;;;1.33;;
1949;SDS011;975;48.760;9.152;2023-07-31T02:02:12;2.78;;;1.35;;
1949;SDS011;975;48.760;9.152;2023-07-31T02:05:00;3.20;;;1.30;;
1949;SDS011;975;48.760;9.152;2023-07-31T02:07:47;4.07;;;1.33;;
1949;SDS011;975;48.760;9.152;2023-07-31T02:10:35;2.35;;;1.23;;
1949;SDS011;975;48.760;9.152;2023-07-31T02:13:23;5.95;;;1.25;;
1949;SDS011;975;48.760;9.152;2023-07-31T02:16:10;3.15;;;1.20;;
1949;SDS011;975;48.760;9.152;2023-07-31T02:19:00;1.38;;;1.10;;
1949;SDS011;975;48.760;9.152;2023-07-31T02:21:47;4.30;;;1.60;;
1949;SDS011;975;48.760;9.152;2023-07-31T02:24:35;6.95;;;3.17;;
1949;SDS011;975;48.760;9.152;2023-07-31T02:27:23;15.93;;;7.95;;
1949;SDS011;975;48.760;9.152;2023-07-31T02:30:13;14.38;;;9.65;;
1949;SDS011;975;48.760;9.152;2023-07-31T02:33:00;16.58;;;10.32;;
1949;SDS011;975;48.760;9.152;2023-07-31T02:35:49;9.85;;;6.97;;
1949;SDS011;975;48.760;9.152;2023-07-31T02:38:37;7.20;;;3.90;;
1949;SDS011;975;48.760;9.152;2023-07-31T02:41:25;6.25;;;4.20;;
1949;SDS011;975;48.760;9.152;2023-07-31T02:44:12;5.60;;;3.20;;
1949;SDS011;975;48.760;9.152;2023-07-31T02:47:00;6.30;;;2.38;;
1949;SDS011;975;48.760;9.152;2023-07-31T02:49:48;3.65;;;2.10;;
1949;SDS011;975;48.760;9.152;2023-07-31T02:52:37;3.85;;;1.60;;
1949;SDS011;975;48.760;9.152;2023-07-31T02:55:25;2.95;;;1.23;;
1949;SDS011;975;48.760;9.152;2023-07-31T02:58:13;1.15;;;1.05;;
1949;SDS011;975;48.760;9.152;2023-07-31T03:01:00;2.65;;;1.38;;
1949;SDS011;975;48.760;9.152;2023-07-31T03:03:48;1.92;;;1.02;;
1949;SDS011;975;48.760;9.152;2023-07-31T03:06:36;2.95;;;1.42;;
1949;SDS011;975;48.760;9.152;2023-07-31T03:09:25;2.85;;;1.38;;
1949;SDS011;975;48.760;9.152;2023-07-31T03:12:13;2.97;;;1.40;;
1949;SDS011;975;48.760;9.152;2023-07-31T03:15:01;4.03;;;1.35;;
1949;SDS011;975;48.760;9.152;2023-07-31T03:17:48;4.03;;;1.52;;
1949;SDS011;975;48.760;9.152;2023-07-31T03:20:36;6.72;;;1.60;;
1949;SDS011;975;48.760;9.152;2023-07-31T03:23:24;1.98;;;1.27;;
1949;SDS011;975;48.760;9.152;2023-07-31T03:26:13;2.13;;;1.00;;
1949;SDS011;975;48.760;9.152;2023-07-31T03:29:00;2.67;;;1.10;;
1949;SDS011;975;48.760;9.152;2023-07-31T03:31:48;1.20;;;0.95;;
1949;SDS011;975;48.760;9.152;2023-07-31T03:34:36;3.55;;;1.27;;
1949;SDS011;975;48.760;9.152;2023-07-31T03:37:24;5.45;;;1.50;;
1949;SDS011;975;48.760;9.152;2023-07-31T03:40:12;3.03;;;1.23;;
1949;SDS011;975;48.760;9.152;2023-07-31T03:43:01;3.20;;;1.55;;
1949;SDS011;975;48.760;9.152;2023-07-31T03:45:49;2.38;;;1.02;;
1949;SDS011;975;48.760;9.152;2023-07-31T03:48:36;1.30;;;1.15;;
1949;SDS011;975;48.760;9.152;2023-07-31T03:51:24;3.40;;;1.63;;
1949;SDS011;975;48.760;9.152;2023-07-31T03:54:12;3.85;;;1.20;;
1949;SDS011;975;48.760;9.152;2023-07-31T03:56:59;1.13;;;0.98;;
1949;SDS011;975;48.760;9.152;2023-07-31T03:59:48;3.90;;;1.20;;
1949;SDS011;975;48.760;9.152;2023-07-31T04:02:36;4.60;;;1.35;;
1949;SDS011;975;48.760;9.152;2023-07-31T04:05:24;3.63;;;1.17;;
1949;SDS011;975;48.760;9.152;2023-07-31T04:08:12;2.53;;;1.35;;
1949;SDS011;975;48.760;9.152;2023-07-31T04:10:59;3.63;;;1.08;;
1949;SDS011;975;48.760;9.152;2023-07-31T04:13:47;1.73;;;1.20;;
1949;SDS011;975;48.760;9.152;2023-07-31T04:16:36;1.50;;;1.23;;
1949;SDS011;975;48.760;9.152;2023-07-31T04:19:24;2.40;;;1.33;;
1949;SDS011;975;48.760;9.152;2023-07-31T04:22:12;2.33;;;1.50;;
1949;SDS011;975;48.760;9.152;2023-07-31T04:24:59;5.05;;;1.45;;
1949;SDS011;975;48.760;9.152;2023-07-31T04:27:47;2.38;;;1.30;;
1949;SDS011;975;48.760;9.152;2023-07-31T04:30:35;3.80;;;1.40;;
1949;SDS011;975;48.760;9.152;2023-07-31T04:33:24;2.58;;;1.25;;
1949;SDS011;975;48.760;9.152;2023-07-31T04:36:12;1.80;;;1.30;;
1949;SDS011;975;48.760;9.152;2023-07-31T04:38:59;2.58;;;1.30;;
1949;SDS011;975;48.760;9.152;2023-07-31T04:41:47;3.35;;;1.88;;
1949;SDS011;975;48.760;9.152;2023-07-31T04:44:35;4.00;;;1.58;;
1949;SDS011;975;48.760;9.152;2023-07-31T04:47:23;1.77;;;1.30;;
1949;SDS011;975;48.760;9.152;2023-07-31T04:50:12;1.50;;;1.35;;
1949;SDS011;975;48.760;9.152;2023-07-31T04:52:59;2.35;;;1.85;;
1949;SDS011;975;48.760;9.152;2023-07-31T04:55:47;2.10;;;1.20;;
1949;SDS011;975;48.760;9.152;2023-07-31T04:58:35;1.80;;;1.50;;
1949;SDS011;975;48.760;9.152;2023-07-31T05:01:22;3.65;;;1.65;;
1949;SDS011;975;48.760;9.152;2023-07-31T05:04:12;2.78;;;1.52;;
1949;SDS011;975;48.760;9.152;2023-07-31T05:07:01;5.93;;;1.50;;
1949;SDS011;975;48.760;9.152;2023-07-31T05:09:49;2.40;;;1.27;;
1949;SDS011;975;48.760;9.152;2023-07-31T05:12:50;3.72;;;1.40;;
1949;SDS011;975;48.760;9.152;2023-07-31T05:15:38;2.40;;;1.52;;
1949;SDS011;975;48.760;9.152;2023-07-31T05:18:26;2.85;;;1.60;;
1949;SDS011;975;48.760;9.152;2023-07-31T05:21:14;2.05;;;1.38;;
1949;SDS011;975;48.760;9.152;2023-07-31T05:24:03;3.35;;;1.80;;
1949;SDS011;975;48.760;9.152;2023-07-31T05:26:50;1.95;;;1.42;;
1949;SDS011;975;48.760;9.152;2023-07-31T05:29:38;5.28;;;1.98;;
1949;SDS011;975;48.760;9.152;2023-07-31T05:32:27;4.00;;;1.40;;
1949;SDS011;975;48.760;9.152;2023-07-31T05:35:15;5.40;;;1.30;;
1949;SDS011;975;48.760;9.152;2023-07-31T05:38:03;6.32;;;1.63;;
1949;SDS011;975;48.760;9.152;2023-07-31T05:40:52;3.17;;;1.38;;
1949;SDS011;975;48.760;9.152;2023-07-31T05:43:40;4.63;;;1.42;;
1949;SDS011;975;48.760;9.152;2023-07-31T05:46:28;3.85;;;1.30;;
1949;SDS011;975;48.760;9.152;2023-07-31T05:49:16;2.58;;;1.30;;
1949;SDS011;975;48.760;9.152;2023-07-31T05:52:04;3.17;;;1.17;;
1949;SDS011;975;48.760;9.152;2023-07-31T05:54:52;3.08;;;1.15;;
1949;SDS011;975;48.760;9.152;2023-07-31T05:57:41;2.72;;;1.27;;
1949;SDS011;975;48.760;9.152;2023-07-31T06:00:31;4.07;;;1.30;;
1949;SDS011;975;48.760;9.152;2023-07-31T06:03:19;1.90;;;1.35;;
1949;SDS011;975;48.760;9.152;2023-07-31T06:06:06;2.33;;;1.30;;
1949;SDS011;975;48.760;9.152;2023-07-31T06:08:54;5.97;;;1.20;;
1949;SDS011;975;48.760;9.152;2023-07-31T06:11:42;2.47;;;1.52;;
1949;SDS011;975;48.760;9.152;2023-07-31T06:14:31;1.58;;;1.05;;
1949;SDS011;975;48.760;9.152;2023-07-31T06:17:19;4.25;;;1.52;;
1949;SDS011;975;48.760;9.152;2023-07-31T06:20:07;3.15;;;1.40;;
1949;SDS011;975;48.760;9.152;2023-07-31T06:22:55;3.72;;;1.63;;
1949;SDS011;975;48.760;9.152;2023-07-31T06:25:43;2.85;;;1.38;;
1949;SDS011;975;48.760;9.152;2023-07-31T06:28:31;2.83;;;1.27;;
1949;SDS011;975;48.760;9.152;2023-07-31T06:31:20;2.47;;;1.10;;
1949;SDS011;975;48.760;9.152;2023-07-31T06:34:08;3.10;;;1.17;;
1949;SDS011;975;48.760;9.152;2023-07-31T06:36:56;2.70;;;1.10;;
1949;SDS011;975;48.760;9.152;2023-07-31T06:39:44;2.15;;;1.17;;
1949;SDS011;975;48.760;9.152;2023-07-31T06:42:32;3.92;;;1.15;;
1949;SDS011;975;48.760;9.152;2023-07-31T06:45:20;2.80;;;1.20;;
1949;SDS011;975;48.760;9.152;2023-07-31T06:48:10;2.80;;;1.25;;
1949;SDS011;975;48.760;9.152;2023-07-31T06:50:57;3.58;;;1.27;;
1949;SDS011;975;48.760;9.152;2023-07-31T06:53:45;3.97;;;1.13;;
1949;SDS011;975;48.760;9.152;2023-07-31T06:56:33;4.57;;;2.00;;
1949;SDS011;975;48.760;9.152;2023-07-31T06:59:20;6.60;;;1.25;;
1949;SDS011;975;48.760;9.152;2023-07-31T07:02:08;4.10;;;1.58;;
1949;SDS011;975;48.760;9.152;2023-07-31T07:04:57;4.72;;;1.30;;
1949;SDS011;975;48.760;9.152;2023-07-31T07:07:45;2.72;;;1.30;;
1949;SDS011;975;48.760;9.152;2023-07-31T07:10:33;4.45;;;1.13;;
1949;SDS011;975;48.760;9.152;2023-07-31T07:13:21;3.47;;;1.23;;
1949;SDS011;975;48.760;9.152;2023-07-31T07:16:08;3.17;;;1.30;;
1949;SDS011;975;48.760;9.152;2023-07-31T07:18:56;4.05;;;1.42;;
1949;SDS011;975;48.760;9.152;2023-07-31T07:21:45;7.85;;;4.55;;
1949;SDS011;975;48.760;9.152;2023-07-31T07:24:33;4.60;;;1.80;;
1949;SDS011;975;48.760;9.152;2023-07-31T07:27:21;2.35;;;1.38;;
1949;SDS011;975;48.760;9.152;2023-07-31T07:30:09;4.82;;;1.52;;
1949;SDS011;975;48.760;9.152;2023-07-31T07:32:57;2.13;;;0.90;;
1949;SDS011;975;48.760;9.152;2023-07-31T07:35:44;4.85;;;1.40;;
1949;SDS011;975;48.760;9.152;2023-07-31T07:38:34;5.78;;;1.70;;
1949;SDS011;975;48.760;9.152;2023-07-31T07:41:21;2.47;;;1.08;;
1949;SDS011;975;48.760;9.152;2023-07-31T07:44:09;1.92;;;1.00;;
1949;SDS011;975;48.760;9.152;2023-07-31T07:46:57;5.95;;;1.50;;
1949;SDS011;975;48.760;9.152;2023-07-31T07:49:44;2.42;;;1.40;;
1949;SDS011;975;48.760;9.152;2023-07-31T07:52:32;4.00;;;1.52;;
1949;SDS011;975;48.760;9.152;2023-07-31T07:55:21;4.15;;;2.30;;
1949;SDS011;975;48.760;9.152;2023-07-31T07:58:09;2.72;;;1.25;;
1949;SDS011;975;48.760;9.152;2023-07-31T08:00:57;4.28;;;2.10;;
1949;SDS011;975;48.760;9.152;2023-07-31T08:03:45;4.20;;;1.23;;
1949;SDS011;975;48.760;9.152;2023-07-31T08:06:32;4.68;;;2.25;;
1949;SDS011;975;48.760;9.152;2023-07-31T08:09:20;3.80;;;1.58;;
1949;SDS011;975;48.760;9.152;2023-07-31T08:12:09;4.22;;;1.60;;
1949;SDS011;975;48.760;9.152;2023-07-31T08:14:57;6.20;;;1.48;;
1949;SDS011;975;48.760;9.152;2023-07-31T08:17:45;5.15;;;1.05;;
1949;SDS011;975;48.760;9.152;2023-07-31T08:20:33;4.18;;;1.77;;
1949;SDS011;975;48.760;9.152;2023-07-31T08:23:21;4.28;;;1.40;;
1949;SDS011;975;48.760;9.152;2023-07-31T08:26:13;2.42;;;1.40;;
1949;SDS011;975;48.760;9.152;2023-07-31T08:29:03;3.90;;;1.33;;
1949;SDS011;975;48.760;9.152;2023-07-31T08:31:50;4.05;;;1.25;;
1949;SDS011;975;48.760;9.152;2023-07-31T08:34:38;3.33;;;1.15;;
1949;SDS011;975;48.760;9.152;2023-07-31T08:37:27;5.38;;;1.33;;
1949;SDS011;975;48.760;9.152;2023-07-31T08:40:15;5.00;;;1.80;;
1949;SDS011;975;48.760;9.152;2023-07-31T08:43:03;2.47;;;1.35;;
1949;SDS011;975;48.760;9.152;2023-07-31T08:45:52;2.45;;;1.48;;
1949;SDS011;975;48.760;9.152;2023-07-31T08:48:41;3.63;;;1.45;;
1949;SDS011;975;48.760;9.152;2023-07-31T08:51:29;2.90;;;1.50;;
1949;SDS011;975;48.760;9.152;2023-07-31T08:54:17;6.43;;;1.30;;
1949;SDS011;975;48.760;9.152;2023-07-31T08:57:05;3.58;;;1.38;;
1949;SDS011;975;48.760;9.152;2023-07-31T08:59:54;5.95;;;1.63;;
1949;SDS011;975;48.760;9.152;2023-07-31T09:02:45;3.55;;;1.90;;
1949;SDS011;975;48.760;9.152;2023-07-31T09:05:33;3.08;;;1.50;;
1949;SDS011;975;48.760;9.152;2023-07-31T09:08:21;5.22;;;2.00;;
1949;SDS011;975;48.760;9.152;2023-07-31T09:11:09;3.28;;;1.20;;
1949;SDS011;975;48.760;9.152;2023-07-31T09:13:57;4.35;;;1.50;;
1949;SDS011;975;48.760;9.152;2023-07-31T09:16:53;3.42;;;1.70;;
1949;SDS011;975;48.760;9.152;2023-07-31T09:19:42;4.60;;;1.33;;
1949;SDS011;975;48.760;9.152;2023-07-31T09:22:31;4.38;;;1.50;;
1949;SDS011;975;48.760;9.152;2023-07-31T09:25:19;10.23;;;1.83;;
1949;SDS011;975;48.760;9.152;2023-07-31T09:28:08;2.53;;;1.50;;
1949;SDS011;975;48.760;9.152;2023-07-31T09:30:56;4.38;;;1.52;;
1949;SDS011;975;48.760;9.152;2023-07-31T09:33:53;3.38;;;1.80;;
1949;SDS011;975;48.760;9.152;2023-07-31T09:36:44;6.93;;;1.42;;
1949;SDS011;975;48.760;9.152;2023-07-31T09:39:32;2.80;;;1.30;;
1949;SDS011;975;48.760;9.152;2023-07-31T09:42:32;3.78;;;1.42;;
1949;SDS011;975;48.760;9.152;2023-07-31T09:45:21;4.47;;;1.38;;
1949;SDS011;975;48.760;9.152;2023-07-31T09:48:10;2.08;;;1.10;;
1949;SDS011;975;48.760;9.152;2023-07-31T09:50:59;3.60;;;1.30;;
1949;SDS011;975;48.760;9.152;2023-07-31T09:53:52;1.77;;;1.20;;
1949;SDS011;975;48.760;9.152;2023-07-31T09:56:41;4.20;;;1.77;;
1949;SDS011;975;48.760;9.152;2023-07-31T09:59:29;5.57;;;1.80;;
1949;SDS011;975;48.760;9.152;2023-07-31T10:02:20;5.50;;;1.40;;
1949;SDS011;975;48.760;9.152;2023-07-31T10:05:08;3.67;;;1.70;;
1949;SDS011;975;48.760;9.152;2023-07-31T10:07:56;5.57;;;1.67;;
1949;SDS011;975;48.760;9.152;2023-07-31T10:10:46;2.28;;;1.38;;
1949;SDS011;975;48.760;9.152;2023-07-31T10:13:33;6.68;;;1.40;;
1949;SDS011;975;48.760;9.152;2023-07-31T10:16:21;3.90;;;1.60;;
1949;SDS011;975;48.760;9.152;2023-07-31T10:19:09;5.85;;;1.75;;
1949;SDS011;975;48.760;9.152;2023-07-31T10:21:57;4.80;;;1.65;;
1949;SDS011;975;48.760;9.152;2023-07-31T10:24:45;4.75;;;1.88;;
1949;SDS011;975;48.760;9.152;2023-07-31T10:27:35;4.88;;;1.50;;
1949;SDS011;975;48.760;9.152;2023-07-31T10:30:24;4.85;;;1.40;;
1949;SDS011;975;48.760;9.152;2023-07-31T10:33:13;4.72;;;1.55;;
1949;SDS011;975;48.760;9.152;2023-07-31T10:36:13;4.47;;;1.52;;
1949;SDS011;975;48.760;9.152;2023-07-31T10:39:03;2.70;;;1.40;;
1949;SDS011;975;48.760;9.152;2023-07-31T10:41:51;4.55;;;1.30;;
1949;SDS011;975;48.760;9.152;2023-07-31T10:44:46;3.22;;;1.20;;
1949;SDS011;975;48.760;9.152;2023-07-31T10:47:37;4.78;;;1.65;;
1949;SDS011;975;48.760;9.152;2023-07-31T10:50:25;4.47;;;1.42;;
1949;SDS011;975;48.760;9.152;2023-07-31T10:53:22;3.70;;;1.63;;
1949;SDS011;975;48.760;9.152;2023-07-31T10:56:10;4.20;;;1.30;;
1949;SDS011;975;48.760;9.152;2023-07-31T10:59:00;5.30;;;1.45;;
1949;SDS011;975;48.760;9.152;2023-07-31T11:01:52;9.10;;;1.88;;
1949;SDS011;975;48.760;9.152;2023-07-31T11:04:42;4.13;;;1.70;;
1949;SDS011;975;48.760;9.152;2023-07-31T11:10:33;3.40;;;1.58;;
1949;SDS011;975;48.760;9.152;2023-07-31T11:13:21;3.88;;;1.70;;
1949;SDS011;975;48.760;9.152;2023-07-31T11:16:08;5.40;;;1.60;;
1949;SDS011;975;48.760;9.152;2023-07-31T11:18:58;3.53;;;1.75;;
1949;SDS011;975;48.760;9.152;2023-07-31T11:21:45;3.97;;;1.80;;
1949;SDS011;975;48.760;9.152;2023-07-31T11:24:33;9.23;;;1.88;;
1949;SDS011;975;48.760;9.152;2023-07-31T11:27:21;7.30;;;1.85;;
1949;SDS011;975;48.760;9.152;2023-07-31T11:30:10;3.67;;;2.15;;
1949;SDS011;975;48.760;9.152;2023-07-31T11:32:57;3.00;;;1.75;;
1949;SDS011;975;48.760;9.152;2023-07-31T11:35:47;3.85;;;1.10;;
1949;SDS011;975;48.760;9.152;2023-07-31T11:38:35;4.90;;;1.70;;
1949;SDS011;975;48.760;9.152;2023-07-31T11:41:22;3.83;;;1.80;;
1949;SDS011;975;48.760;9.152;2023-07-31T11:44:10;4.07;;;1.42;;
1949;SDS011;975;48.760;9.152;2023-07-31T11:46:58;2.58;;;1.58;;
1949;SDS011;975;48.760;9.152;2023-07-31T11:49:48;7.78;;;2.08;;
1949;SDS011;975;48.760;9.152;2023-07-31T11:52:40;4.70;;;1.67;;
1949;SDS011;975;48.760;9.152;2023-07-31T11:55:30;3.45;;;1.73;;
1949;SDS011;975;48.760;9.152;2023-07-31T11:58:18;5.13;;;1.67;;
1949;SDS011;975;48.760;9.152;2023-07-31T12:01:06;3.85;;;1.50;;
1949;SDS011;975;48.760;9.152;2023-07-31T12:03:54;3.00;;;1.60;;
1949;SDS011;975;48.760;9.152;2023-07-31T12:06:42;3.13;;;2.03;;
1949;SDS011;975;48.760;9.152;2023-07-31T12:09:32;4.88;;;1.98;;
1949;SDS011;975;48.760;9.152;2023-07-31T12:12:20;3.50;;;1.60;;
1949;SDS011;975;48.760;9.152;2023-07-31T12:15:13;3.80;;;1.45;;
1949;SDS011;975;48.760;9.152;2023-07-31T12:18:05;5.32;;;1.73;;
1949;SDS011;975;48.760;9.152;2023-07-31T12:20:53;4.68;;;1.63;;
1949;SDS011;975;48.760;9.152;2023-07-31T12:23:43;3.00;;;1.40;;
1949;SDS011;975;48.760;9.152;2023-07-31T12:26:34;4.70;;;1.90;;
1949;SDS011;975;48.760;9.152;2023-07-31T12:29:22;3.70;;;1.67;;
1949;SDS011;975;48.760;9.152;2023-07-31T12:32:20;3.45;;;1.35;;
1949;SDS011;975;48.760;9.152;2023-07-31T12:35:08;4.53;;;1.70;;
1949;SDS011;975;48.760;9.152;2023-07-31T12:37:55;2.95;;;1.70;;
1949;SDS011;975;48.760;9.152;2023-07-31T12:40:44;7.18;;;1.63;;
1949;SDS011;975;48.760;9.152;2023-07-31T12:43:33;3.20;;;1.90;;
1949;SDS011;975;48.760;9.152;2023-07-31T12:46:21;4.95;;;1.88;;
1949;SDS011;975;48.760;9.152;2023-07-31T12:49:09;3.85;;;1.40;;
1949;SDS011;975;48.760;9.152;2023-07-31T12:51:57;6.32;;;1.80;;
1949;SDS011;975;48.760;9.152;2023-07-31T12:54:45;5.93;;;2.60;;
1949;SDS011;975;48.760;9.152;2023-07-31T12:57:32;3.33;;;1.85;;
1949;SDS011;975;48.760;9.152;2023-07-31T13:00:21;3.28;;;1.63;;
1949;SDS011;975;48.760;9.152;2023-07-31T13:03:09;5.60;;;1.52;;
1949;SDS011;975;48.760;9.152;2023-07-31T13:05:57;2.92;;;1.60;;
1949;SDS011;975;48.760;9.152;2023-07-31T13:08:45;3.63;;;1.45;;
1949;SDS011;975;48.760;9.152;2023-07-31T13:11:33;4.45;;;1.90;;
1949;SDS011;975;48.760;9.152;2023-07-31T13:14:20;4.25;;;1.83;;
1949;SDS011;975;48.760;9.152;2023-07-31T13:17:09;5.38;;;2.30;;
1949;SDS011;975;48.760;9.152;2023-07-31T13:19:57;5.38;;;1.83;;
1949;SDS011;975;48.760;9.152;2023-07-31T13:22:45;3.55;;;1.75;;
1949;SDS011;975;48.760;9.152;2023-07-31T13:25:32;4.43;;;1.75;;
1949;SDS011;975;48.760;9.152;2023-07-31T13:28:20;3.25;;;1.70;;
1949;SDS011;975;48.760;9.152;2023-07-31T13:31:08;5.15;;;1.70;;
1949;SDS011;975;48.760;9.152;2023-07-31T13:33:58;6.95;;;2.00;;
1949;SDS011;975;48.760;9.152;2023-07-31T13:36:46;3.60;;;1.80;;
1949;SDS011;975;48.760;9.152;2023-07-31T13:39:33;4.40;;;1.85;;
1949;SDS011;975;48.760;9.152;2023-07-31T13:42:21;3.40;;;1.85;;
1949;SDS011;975;48.760;9.152;2023-07-31T13:45:09;3.70;;;1.90;;
1949;SDS011;975;48.760;9.152;2023-07-31T13:47:57;3.88;;;1.65;;
1949;SDS011;975;48.760;9.152;2023-07-31T13:50:46;2.75;;;1.48;;
1949;SDS011;975;48.760;9.152;2023-07-31T13:53:34;4.32;;;1.60;;
1949;SDS011;975;48.760;9.152;2023-07-31T13:56:21;5.43;;;1.92;;
1949;SDS011;975;48.760;9.152;2023-07-31T13:59:09;4.18;;;2.05;;
1949;SDS011;975;48.760;9.152;2023-07-31T14:01:57;4.68;;;1.60;;
1949;SDS011;975;48.760;9.152;2023-07-31T14:04:45;3.58;;;1.77;;
1949;SDS011;975;48.760;9.152;2023-07-31T14:07:34;2.92;;;1.73;;
1949;SDS011;975;48.760;9.152;2023-07-31T14:10:21;6.47;;;2.08;;
1949;SDS011;975;48.760;9.152;2023-07-31T14:13:09;7.82;;;2.08;;
1949;SDS011;975;48.760;9.152;2023-07-31T14:15:57;3.70;;;1.52;;
1949;SDS011;975;48.760;9.152;2023-07-31T14:18:44;5.25;;;1.80;;
1949;SDS011;975;48.760;9.152;2023-07-31T14:21:32;3.03;;;1.52;;
1949;SDS011;975;48.760;9.152;2023-07-31T14:24:21;5.88;;;1.63;;
1949;SDS011;975;48.760;9.152;2023-07-31T14:27:09;3.22;;;1.85;;
1949;SDS011;975;48.760;9.152;2023-07-31T14:29:57;4.03;;;2.47;;
1949;SDS011;975;48.760;9.152;2023-07-31T14:32:33;3.90;;;1.63;;
1949;SDS011;975;48.760;9.152;2023-07-31T14:35:02;4.70;;;1.80;;
1949;SDS011;975;48.760;9.152;2023-07-31T14:37:36;5.13;;;1.98;;
1949;SDS011;975;48.760;9.152;2023-07-31T14:40:06;3.92;;;1.55;;
1949;SDS011;975;48.760;9.152;2023-07-31T14:42:34;3.00;;;1.58;;
1949;SDS011;975;48.760;9.152;2023-07-31T14:45:02;4.03;;;1.67;;
1949;SDS011;975;48.760;9.152;2023-07-31T14:47:30;4.75;;;1.88;;
1949;SDS011;975;48.760;9.152;2023-07-31T14:49:57;3.50;;;1.70;;
1949;SDS011;975;48.760;9.152;2023-07-31T14:52:25;3.17;;;1.85;;
1949;SDS011;975;48.760;9.152;2023-07-31T14:54:52;3.20;;;2.38;;
1949;SDS011;975;48.760;9.152;2023-07-31T14:57:22;3.65;;;2.15;;
1949;SDS011;975;48.760;9.152;2023-07-31T15:00:08;3.58;;;1.88;;
1949;SDS011;975;48.760;9.152;2023-07-31T15:02:36;4.25;;;1.42;;
1949;SDS011;975;48.760;9.152;2023-07-31T15:05:03;4.43;;;2.17;;
1949;SDS011;975;48.760;9.152;2023-07-31T15:07:31;4.00;;;1.70;;
1949;SDS011;975;48.760;9.152;2023-07-31T15:09:59;4.85;;;1.60;;
1949;SDS011;975;48.760;9.152;2023-07-31T15:12:27;4.07;;;1.83;;
1949;SDS011;975;48.760;9.152;2023-07-31T15:14:55;5.63;;;1.65;;
1949;SDS011;975;48.760;9.152;2023-07-31T15:17:23;7.63;;;2.13;;
1949;SDS011;975;48.760;9.152;2023-07-31T15:19:50;3.40;;;1.80;;
1949;SDS011;975;48.760;9.152;2023-07-31T15:22:17;3.40;;;1.92;;
1949;SDS011;975;48.760;9.152;2023-07-31T15:24:45;2.53;;;1.50;;
1949;SDS011;975;48.760;9.152;2023-07-31T15:27:14;4.47;;;2.05;;
1949;SDS011;975;48.760;9.152;2023-07-31T15:29:43;2.97;;;1.65;;
1949;SDS011;975;48.760;9.152;2023-07-31T15:32:10;2.60;;;1.65;;
1949;SDS011;975;48.760;9.152;2023-07-31T15:34:38;8.23;;;1.67;;
1949;SDS011;975;48.760;9.152;2023-07-31T15:37:05;4.30;;;1.65;;
1949;SDS011;975;48.760;9.152;2023-07-31T15:39:32;2.72;;;1.65;;
1949;SDS011;975;48.760;9.152;2023-07-31T15:42:00;6.40;;;3.60;;
1949;SDS011;975;48.760;9.152;2023-07-31T15:44:28;2.70;;;1.83;;
1949;SDS011;975;48.760;9.152;2023-07-31T15:46:56;5.32;;;1.73;;
1949;SDS011;975;48.760;9.152;2023-07-31T15:49:24;3.97;;;1.45;;
1949;SDS011;975;48.760;9.152;2023-07-31T15:51:51;2.90;;;1.90;;
1949;SDS011;975;48.760;9.152;2023-07-31T15:54:19;2.75;;;1.70;;
1949;SDS011;975;48.760;9.152;2023-07-31T15:56:46;5.28;;;2.03;;
1949;SDS011;975;48.760;9.152;2023-07-31T15:59:14;3.33;;;1.58;;
1949;SDS011;975;48.760;9.152;2023-07-31T16:01:40;2.95;;;1.70;;
1949;SDS011;975;48.760;9.152;2023-07-31T16:04:09;3.22;;;1.85;;
1949;SDS011;975;48.760;9.152;2023-07-31T16:06:36;3.17;;;2.10;;
1949;SDS011;975;48.760;9.152;2023-07-31T16:09:04;4.47;;;1.42;;
1949;SDS011;975;48.760;9.152;2023-07-31T16:11:31;3.92;;;1.95;;
1949;SDS011;975;48.760;9.152;2023-07-31T16:13:59;2.92;;;1.65;;
1949;SDS011;975;48.760;9.152;2023-07-31T16:16:27;3.38;;;1.98;;
1949;SDS011;975;48.760;9.152;2023-07-31T16:18:55;4.25;;;1.52;;
1949;SDS011;975;48.760;9.152;2023-07-31T16:21:23;4.20;;;1.60;;
1949;SDS011;975;48.760;9.152;2023-07-31T16:23:51;2.72;;;1.80;;
1949;SDS011;975;48.760;9.152;2023-07-31T16:26:18;3.95;;;1.48;;
1949;SDS011;975;48.760;9.152;2023-07-31T16:28:46;2.60;;;1.30;;
1949;SDS011;975;48.760;9.152;2023-07-31T16:31:13;4.60;;;1.75;;
1949;SDS011;975;48.760;9.152;2023-07-31T16:33:41;3.78;;;1.60;;
1949;SDS011;975;48.760;9.152;2023-07-31T16:36:08;3.33;;;1.50;;
1949;SDS011;975;48.760;9.152;2023-07-31T16:38:37;2.45;;;1.40;;
1949;SDS011;975;48.760;9.152;2023-07-31T16:41:04;3.60;;;1.70;;
1949;SDS011;975;48.760;9.152;2023-07-31T16:43:32;2.47;;;1.60;;
1949;SDS011;975;48.760;9.152;2023-07-31T16:46:00;4.38;;;1.55;;
1949;SDS011;975;48.760;9.152;2023-07-31T16:48:27;3.97;;;1.80;;
1949;SDS011;975;48.760;9.152;2023-07-31T16:50:55;3.38;;;1.77;;
1949;SDS011;975;48.760;9.152;2023-07-31T16:53:22;3.60;;;1.77;;
1949;SDS011;975;48.760;9.152;2023-07-31T16:55:51;4.32;;;1.77;;
1949;SDS011;975;48.760;9.152;2023-07-31T16:58:18;1.73;;;1.20;;
1949;SDS011;975;48.760;9.152;2023-07-31T17:00:46;5.85;;;1.85;;
1949;SDS011;975;48.760;9.152;2023-07-31T17:03:14;3.90;;;1.50;;
1949;SDS011;975;48.760;9.152;2023-07-31T17:05:41;2.92;;;1.48;;
1949;SDS011;975;48.760;9.152;2023-07-31T17:08:09;2.65;;;1.50;;
1949;SDS011;975;48.760;9.152;2023-07-31T17:10:37;4.68;;;2.67;;
1949;SDS011;975;48.760;9.152;2023-07-31T17:13:06;4.15;;;1.80;;
1949;SDS011;975;48.760;9.152;2023-07-31T17:15:33;3.50;;;1.60;;
1949;SDS011;975;48.760;9.152;2023-07-31T17:18:01;3.97;;;2.05;;
1949;SDS011;975;48.760;9.152;2023-07-31T17:20:28;5.00;;;1.83;;
1949;SDS011;975;48.760;9.152;2023-07-31T17:22:57;3.95;;;1.90;;
1949;SDS011;975;48.760;9.152;2023-07-31T17:25:24;3.92;;;1.98;;